Wallingford, VT

7:00 PM EDT on May 27, 2015 (GMT -0400)
Sugar Hill | | Change Station
CLOSE
Current Station
Personal Weather Station
Location: East Wallingford, VT
Elevation: 1650 ft
Nearby Weather Stations

Elev 1650 ft 43.44 °N, 72.89 °W | Updated 7 seconds ago

Rain
Rain
67.5 °F
Feels Like 67.5 °F
N
0.0
Wind Variable Wind from WNW
Gusts 0.0 mph

Today
High -- | Low -- °F
--% Chance of Precip.
Yesterday
High -- | Low -- °F
Precip. -- in
5:16 AM 8:21 PM
Waxing Gibbous, 71% visible
Pressure 30.05 in
Visibility 10.0 miles
Clouds Scattered Clouds 2700 ft
Mostly Cloudy 3800 ft
Overcast 11000 ft
Dew Point 67 °F
Humidity 97%
Rainfall 0.40 in
Snow Depth Not available.
UV 0.0 out of 12
Pollen 6.90 out of 12
Air Quality Not available.
Flu Activity Local Activity
METAR KRUT 272255Z AUTO 14003KT 10SM SCT027 BKN038 OVC110 20/18 A3005 RMK AO1 TSE02 P0007

More Conditions Fewer Conditions

Pressure 30.05 in
Visibility 10.0 miles
Clouds Scattered Clouds 2700 ft
Mostly Cloudy 3800 ft
Overcast 11000 ft
Dew Point 67 °F
Humidity 97%
Rainfall 0.40 in
Snow Depth Not available.
UV 0.0 out of 12
Pollen 6.90 out of 12
Air Quality Not available.
Flu Activity Local Activity
METAR KRUT 272255Z AUTO 14003KT 10SM SCT027 BKN038 OVC110 20/18 A3005 RMK AO1 TSE02 P0007

More Conditions Fewer Conditions

10-Day Weather Forecast

Almanac

Astronomy

May. 27, 2015 Rise Set
Actual Time
Civil Twilight
Nautical Twilight
Astronomical Twilight
Moon
Length of Visible Light
Length of Day
Tomorrow will be .
, % of the Moon is Illuminated

Today's Extremes

State Highs State Lows

Community

WunderPhotos

Upload Photos

1,824,815 photos uploaded!

WunderBlogs® & News

Nearby

Air Quality

  Air Quality AQ Index Pollutant
Not available.

Snow Depth

Station Depth Elevation

Earthquake Activity

City Distance Mag. Time & Date
Minimum magnitude displayed is 2.5.

Coastal Water Temperatures

Place Temperature

Stations

Nearby Weather Stations

Station Location Temp. Windchill Dew Point Humidity Wind Precip. Elev Updated Type